sensor_id;sensor_type;location;lat;lon;timestamp;temperature;humidity
4651;DHT22;2338;49.602;8.722;2024-01-15T00:01:15;-1.00;99.90
4651;DHT22;2338;49.602;8.722;2024-01-15T00:04:02;-1.20;99.90
4651;DHT22;2338;49.602;8.722;2024-01-15T00:06:49;-1.30;99.90
4651;DHT22;2338;49.602;8.722;2024-01-15T00:09:35;-1.30;99.90
4651;DHT22;2338;49.602;8.722;2024-01-15T00:12:20;-1.30;99.90
4651;DHT22;2338;49.602;8.722;2024-01-15T00:15:06;-1.20;99.90
4651;DHT22;2338;49.602;8.722;2024-01-15T00:17:52;-1.30;99.90
4651;DHT22;2338;49.602;8.722;2024-01-15T00:20:39;-1.30;99.90
4651;DHT22;2338;49.602;8.722;2024-01-15T00:23:25;-1.40;99.90
4651;DHT22;2338;49.602;8.722;2024-01-15T00:26:11;-1.30;99.90
4651;DHT22;2338;49.602;8.722;2024-01-15T00:28:57;-1.30;99.90
4651;DHT22;2338;49.602;8.722;2024-01-15T00:31:42;-1.50;99.90
4651;DHT22;2338;49.602;8.722;2024-01-15T00:34:28;-1.40;99.90
4651;DHT22;2338;49.602;8.722;2024-01-15T00:37:15;-1.20;99.90
4651;DHT22;2338;49.602;8.722;2024-01-15T00:40:01;-1.20;99.90
4651;DHT22;2338;49.602;8.722;2024-01-15T00:42:46;-1.20;99.90
4651;DHT22;2338;49.602;8.722;2024-01-15T00:45:32;-1.30;99.90
4651;DHT22;2338;49.602;8.722;2024-01-15T00:48:18;-1.20;99.90
4651;DHT22;2338;49.602;8.722;2024-01-15T00:51:04;-1.10;99.90
4651;DHT22;2338;49.602;8.722;2024-01-15T00:53:51;-1.10;99.90
4651;DHT22;2338;49.602;8.722;2024-01-15T00:56:36;-1.20;99.90
4651;DHT22;2338;49.602;8.722;2024-01-15T00:59:22;-1.30;99.90
4651;DHT22;2338;49.602;8.722;2024-01-15T01:02:08;-1.30;99.90
4651;DHT22;2338;49.602;8.722;2024-01-15T01:04:54;-1.30;99.90
4651;DHT22;2338;49.602;8.722;2024-01-15T01:07:39;-1.30;99.90
4651;DHT22;2338;49.602;8.722;2024-01-15T01:10:27;-1.30;99.90
4651;DHT22;2338;49.602;8.722;2024-01-15T01:13:13;-1.40;99.90
4651;DHT22;2338;49.602;8.722;2024-01-15T01:15:58;-1.30;99.90
4651;DHT22;2338;49.602;8.722;2024-01-15T01:18:44;-1.20;99.90
4651;DHT22;2338;49.602;8.722;2024-01-15T01:21:29;-1.10;99.90
4651;DHT22;2338;49.602;8.722;2024-01-15T01:24:15;-1.10;99.90
4651;DHT22;2338;49.602;8.722;2024-01-15T01:27:02;-1.10;99.90
4651;DHT22;2338;49.602;8.722;2024-01-15T01:29:48;-1.10;99.90
4651;DHT22;2338;49.602;8.722;2024-01-15T01:32:33;-1.20;99.90
4651;DHT22;2338;49.602;8.722;2024-01-15T01:35:19;-1.30;99.90
4651;DHT22;2338;49.602;8.722;2024-01-15T01:38:05;-1.30;99.90
4651;DHT22;2338;49.602;8.722;2024-01-15T01:40:51;-1.20;99.90
4651;DHT22;2338;49.602;8.722;2024-01-15T01:43:38;-1.20;99.90
4651;DHT22;2338;49.602;8.722;2024-01-15T01:46:24;-1.10;99.90
4651;DHT22;2338;49.602;8.722;2024-01-15T01:49:09;-1.00;99.90
4651;DHT22;2338;49.602;8.722;2024-01-15T01:51:58;-1.00;99.90
4651;DHT22;2338;49.602;8.722;2024-01-15T01:54:45;-1.30;99.90
4651;DHT22;2338;49.602;8.722;2024-01-15T01:57:31;-1.20;99.90
4651;DHT22;2338;49.602;8.722;2024-01-15T02:00:19;-1.20;99.90
4651;DHT22;2338;49.602;8.722;2024-01-15T02:03:05;-1.20;99.90
4651;DHT22;2338;49.602;8.722;2024-01-15T02:05:51;-1.20;99.90
4651;DHT22;2338;49.602;8.722;2024-01-15T02:08:38;-1.30;99.90
4651;DHT22;2338;49.602;8.722;2024-01-15T02:11:23;-1.20;99.90
4651;DHT22;2338;49.602;8.722;2024-01-15T02:14:09;-1.20;99.90
4651;DHT22;2338;49.602;8.722;2024-01-15T02:16:56;-1.20;99.90
4651;DHT22;2338;49.602;8.722;2024-01-15T02:19:42;-1.20;99.90
4651;DHT22;2338;49.602;8.722;2024-01-15T02:22:27;-1.10;99.90
4651;DHT22;2338;49.602;8.722;2024-01-15T02:25:14;-1.00;99.90
4651;DHT22;2338;49.602;8.722;2024-01-15T02:28:00;-1.10;99.90
4651;DHT22;2338;49.602;8.722;2024-01-15T02:30:46;-1.10;99.90
4651;DHT22;2338;49.602;8.722;2024-01-15T02:33:31;-1.00;99.90
4651;DHT22;2338;49.602;8.722;2024-01-15T02:36:17;-0.80;99.90
4651;DHT22;2338;49.602;8.722;2024-01-15T02:39:03;-0.90;99.90
4651;DHT22;2338;49.602;8.722;2024-01-15T02:41:49;-0.80;99.90
4651;DHT22;2338;49.602;8.722;2024-01-15T02:44:35;-0.80;99.90
4651;DHT22;2338;49.602;8.722;2024-01-15T02:47:21;-0.80;99.90
4651;DHT22;2338;49.602;8.722;2024-01-15T02:50:07;-0.70;99.90
4651;DHT22;2338;49.602;8.722;2024-01-15T02:52:52;-0.70;99.90
4651;DHT22;2338;49.602;8.722;2024-01-15T02:55:38;-0.70;99.90
4651;DHT22;2338;49.602;8.722;2024-01-15T02:58:25;-0.80;99.90
4651;DHT22;2338;49.602;8.722;2024-01-15T03:01:10;-0.90;99.90
4651;DHT22;2338;49.602;8.722;2024-01-15T03:03:56;-0.90;99.90
4651;DHT22;2338;49.602;8.722;2024-01-15T03:06:42;-0.90;99.90
4651;DHT22;2338;49.602;8.722;2024-01-15T03:09:28;-1.00;99.90
4651;DHT22;2338;49.602;8.722;2024-01-15T03:12:13;-0.90;99.90
4651;DHT22;2338;49.602;8.722;2024-01-15T03:15:01;-1.10;99.90
4651;DHT22;2338;49.602;8.722;2024-01-15T03:17:46;-1.00;99.90
4651;DHT22;2338;49.602;8.722;2024-01-15T03:20:32;-1.00;99.90
4651;DHT22;2338;49.602;8.722;2024-01-15T03:23:18;-0.90;99.90
4651;DHT22;2338;49.602;8.722;2024-01-15T03:26:03;-0.70;99.90
4651;DHT22;2338;49.602;8.722;2024-01-15T03:28:49;-0.70;99.90
4651;DHT22;2338;49.602;8.722;2024-01-15T03:31:37;-0.60;99.90
4651;DHT22;2338;49.602;8.722;2024-01-15T03:34:22;-0.60;99.90
4651;DHT22;2338;49.602;8.722;2024-01-15T03:37:08;-0.50;99.90
4651;DHT22;2338;49.602;8.722;2024-01-15T03:39:53;-0.50;99.90
4651;DHT22;2338;49.602;8.722;2024-01-15T03:42:39;-0.50;99.90
4651;DHT22;2338;49.602;8.722;2024-01-15T03:45:25;-0.60;99.90
4651;DHT22;2338;49.602;8.722;2024-01-15T03:48:12;-0.60;99.90
4651;DHT22;2338;49.602;8.722;2024-01-15T03:50:57;-0.60;99.90
4651;DHT22;2338;49.602;8.722;2024-01-15T03:53:43;-0.70;99.90
4651;DHT22;2338;49.602;8.722;2024-01-15T03:56:29;-0.70;99.90
4651;DHT22;2338;49.602;8.722;2024-01-15T03:59:14;-0.60;99.90
4651;DHT22;2338;49.602;8.722;2024-01-15T04:02:00;-0.60;99.90
4651;DHT22;2338;49.602;8.722;2024-01-15T04:04:47;-0.60;99.90
4651;DHT22;2338;49.602;8.722;2024-01-15T04:07:32;-0.60;99.90
4651;DHT22;2338;49.602;8.722;2024-01-15T04:10:18;-0.60;99.90
4651;DHT22;2338;49.602;8.722;2024-01-15T04:13:04;-0.50;99.90
4651;DHT22;2338;49.602;8.722;2024-01-15T04:15:49;-0.40;99.90
4651;DHT22;2338;49.602;8.722;2024-01-15T04:18:35;-0.40;99.90
4651;DHT22;2338;49.602;8.722;2024-01-15T04:21:22;-0.40;99.90
4651;DHT22;2338;49.602;8.722;2024-01-15T04:24:08;-0.50;99.90
4651;DHT22;2338;49.602;8.722;2024-01-15T04:26:53;-0.40;99.90
4651;DHT22;2338;49.602;8.722;2024-01-15T04:29:39;-0.40;99.90
4651;DHT22;2338;49.602;8.722;2024-01-15T04:32:24;-0.50;99.90
4651;DHT22;2338;49.602;8.722;2024-01-15T04:35:10;-0.50;99.90
4651;DHT22;2338;49.602;8.722;2024-01-15T04:37:58;-0.60;99.90
4651;DHT22;2338;49.602;8.722;2024-01-15T04:40:43;-0.60;99.90
4651;DHT22;2338;49.602;8.722;2024-01-15T04:43:29;-0.50;99.90
4651;DHT22;2338;49.602;8.722;2024-01-15T04:46:15;-0.40;99.90
4651;DHT22;2338;49.602;8.722;2024-01-15T04:49:00;-0.40;99.90
4651;DHT22;2338;49.602;8.722;2024-01-15T04:51:46;-0.40;99.90
4651;DHT22;2338;49.602;8.722;2024-01-15T04:54:33;-0.40;99.90
4651;DHT22;2338;49.602;8.722;2024-01-15T04:57:19;-0.40;99.90
4651;DHT22;2338;49.602;8.722;2024-01-15T05:00:05;-0.40;99.90
4651;DHT22;2338;49.602;8.722;2024-01-15T05:02:51;-0.30;99.90
4651;DHT22;2338;49.602;8.722;2024-01-15T05:05:37;-0.30;99.90
4651;DHT22;2338;49.602;8.722;2024-01-15T05:08:23;-0.20;99.90
4651;DHT22;2338;49.602;8.722;2024-01-15T05:11:10;-0.20;99.90
4651;DHT22;2338;49.602;8.722;2024-01-15T05:13:55;-0.20;99.90
4651;DHT22;2338;49.602;8.722;2024-01-15T05:16:46;-0.20;99.90
4651;DHT22;2338;49.602;8.722;2024-01-15T05:19:32;-0.20;99.90
4651;DHT22;2338;49.602;8.722;2024-01-15T05:22:18;-0.10;99.90
4651;DHT22;2338;49.602;8.722;2024-01-15T05:25:04;-0.10;99.90
4651;DHT22;2338;49.602;8.722;2024-01-15T05:27:51;-0.10;99.90
4651;DHT22;2338;49.602;8.722;2024-01-15T05:30:37;-0.10;99.90
4651;DHT22;2338;49.602;8.722;2024-01-15T05:33:22;-0.20;99.90
4651;DHT22;2338;49.602;8.722;2024-01-15T05:36:08;-0.20;99.90
4651;DHT22;2338;49.602;8.722;2024-01-15T05:38:53;-0.10;99.90
4651;DHT22;2338;49.602;8.722;2024-01-15T05:41:39;-0.10;99.90
4651;DHT22;2338;49.602;8.722;2024-01-15T05:44:26;-0.20;99.90
4651;DHT22;2338;49.602;8.722;2024-01-15T05:47:10;-0.30;99.90
4651;DHT22;2338;49.602;8.722;2024-01-15T05:49:56;-0.40;99.90
4651;DHT22;2338;49.602;8.722;2024-01-15T05:52:42;-0.40;99.90
4651;DHT22;2338;49.602;8.722;2024-01-15T05:55:27;-0.40;99.90
4651;DHT22;2338;49.602;8.722;2024-01-15T05:58:13;-0.40;99.90
4651;DHT22;2338;49.602;8.722;2024-01-15T06:01:00;-0.40;99.90
4651;DHT22;2338;49.602;8.722;2024-01-15T06:03:46;-0.50;99.90
4651;DHT22;2338;49.602;8.722;2024-01-15T06:06:31;-0.50;99.90
4651;DHT22;2338;49.602;8.722;2024-01-15T06:09:17;-0.40;99.90
4651;DHT22;2338;49.602;8.722;2024-01-15T06:12:03;-0.40;99.90
4651;DHT22;2338;49.602;8.722;2024-01-15T06:14:48;-0.30;99.90
4651;DHT22;2338;49.602;8.722;2024-01-15T06:17:35;-0.40;99.90
4651;DHT22;2338;49.602;8.722;2024-01-15T06:20:21;-0.30;99.90
4651;DHT22;2338;49.602;8.722;2024-01-15T06:23:07;-0.40;99.90
4651;DHT22;2338;49.602;8.722;2024-01-15T06:25:53;-0.40;99.90
4651;DHT22;2338;49.602;8.722;2024-01-15T06:28:38;-0.30;99.90
4651;DHT22;2338;49.602;8.722;2024-01-15T06:31:24;-0.30;99.90
4651;DHT22;2338;49.602;8.722;2024-01-15T06:34:11;-0.30;99.90
4651;DHT22;2338;49.602;8.722;2024-01-15T06:36:57;-0.30;99.90
4651;DHT22;2338;49.602;8.722;2024-01-15T06:39:43;-0.30;99.90
4651;DHT22;2338;49.602;8.722;2024-01-15T06:42:28;-0.30;99.90
4651;DHT22;2338;49.602;8.722;2024-01-15T06:45:14;-0.40;99.90
4651;DHT22;2338;49.602;8.722;2024-01-15T06:47:59;-0.40;99.90
4651;DHT22;2338;49.602;8.722;2024-01-15T06:50:46;-0.30;99.90
4651;DHT22;2338;49.602;8.722;2024-01-15T06:53:32;-0.20;99.90
4651;DHT22;2338;49.602;8.722;2024-01-15T06:56:18;-0.20;99.90
4651;DHT22;2338;49.602;8.722;2024-01-15T06:59:03;-0.20;99.90
4651;DHT22;2338;49.602;8.722;2024-01-15T07:01:49;-0.10;99.90
4651;DHT22;2338;49.602;8.722;2024-01-15T07:04:35;0.00;99.90
4651;DHT22;2338;49.602;8.722;2024-01-15T07:07:22;0.00;99.90
4651;DHT22;2338;49.602;8.722;2024-01-15T07:10:08;0.00;99.90
4651;DHT22;2338;49.602;8.722;2024-01-15T07:12:54;0.10;99.90
4651;DHT22;2338;49.602;8.722;2024-01-15T07:15:40;0.00;99.90
4651;DHT22;2338;49.602;8.722;2024-01-15T07:18:25;0.10;99.90
4651;DHT22;2338;49.602;8.722;2024-01-15T07:21:11;0.10;99.90
4651;DHT22;2338;49.602;8.722;2024-01-15T07:23:58;0.10;99.90
4651;DHT22;2338;49.602;8.722;2024-01-15T07:26:43;0.20;99.90
4651;DHT22;2338;49.602;8.722;2024-01-15T07:29:29;0.20;99.90
4651;DHT22;2338;49.602;8.722;2024-01-15T07:32:15;0.20;99.90
4651;DHT22;2338;49.602;8.722;2024-01-15T07:35:00;0.20;99.90
4651;DHT22;2338;49.602;8.722;2024-01-15T07:37:46;0.20;99.90
4651;DHT22;2338;49.602;8.722;2024-01-15T07:40:33;0.30;99.90
4651;DHT22;2338;49.602;8.722;2024-01-15T07:43:18;0.30;99.90
4651;DHT22;2338;49.602;8.722;2024-01-15T07:46:04;0.30;99.90
4651;DHT22;2338;49.602;8.722;2024-01-15T07:48:51;0.40;99.90
4651;DHT22;2338;49.602;8.722;2024-01-15T07:51:40;0.50;99.90
4651;DHT22;2338;49.602;8.722;2024-01-15T07:54:27;0.40;99.90
4651;DHT22;2338;49.602;8.722;2024-01-15T07:57:14;0.40;99.90
4651;DHT22;2338;49.602;8.722;2024-01-15T08:00:00;0.20;99.90
4651;DHT22;2338;49.602;8.722;2024-01-15T08:02:45;0.30;99.90
4651;DHT22;2338;49.602;8.722;2024-01-15T08:05:31;0.40;99.90
4651;DHT22;2338;49.602;8.722;2024-01-15T08:08:17;0.30;99.90
4651;DHT22;2338;49.602;8.722;2024-01-15T08:11:03;0.40;99.90
4651;DHT22;2338;49.602;8.722;2024-01-15T08:13:50;0.40;99.90
4651;DHT22;2338;49.602;8.722;2024-01-15T08:16:36;0.20;99.90
4651;DHT22;2338;49.602;8.722;2024-01-15T08:19:22;0.30;99.90
4651;DHT22;2338;49.602;8.722;2024-01-15T08:22:07;0.20;99.90
4651;DHT22;2338;49.602;8.722;2024-01-15T08:24:54;0.30;99.90
4651;DHT22;2338;49.602;8.722;2024-01-15T08:27:39;0.30;99.90
4651;DHT22;2338;49.602;8.722;2024-01-15T08:30:26;0.40;99.90
4651;DHT22;2338;49.602;8.722;2024-01-15T08:33:11;0.40;99.90
4651;DHT22;2338;49.602;8.722;2024-01-15T08:35:57;0.40;99.90
4651;DHT22;2338;49.602;8.722;2024-01-15T08:38:43;0.50;99.90
4651;DHT22;2338;49.602;8.722;2024-01-15T08:41:28;0.50;99.90
4651;DHT22;2338;49.602;8.722;2024-01-15T08:44:14;0.50;99.90
4651;DHT22;2338;49.602;8.722;2024-01-15T08:47:02;0.50;99.90
4651;DHT22;2338;49.602;8.722;2024-01-15T08:49:48;0.50;99.90
4651;DHT22;2338;49.602;8.722;2024-01-15T08:52:34;0.60;99.90
4651;DHT22;2338;49.602;8.722;2024-01-15T08:55:19;0.60;99.90
4651;DHT22;2338;49.602;8.722;2024-01-15T08:58:06;0.60;99.90
4651;DHT22;2338;49.602;8.722;2024-01-15T09:00:52;0.70;99.90
4651;DHT22;2338;49.602;8.722;2024-01-15T09:03:39;0.70;99.90
4651;DHT22;2338;49.602;8.722;2024-01-15T09:06:25;0.70;99.90
4651;DHT22;2338;49.602;8.722;2024-01-15T09:09:11;0.60;99.90
4651;DHT22;2338;49.602;8.722;2024-01-15T09:11:57;0.60;99.90
4651;DHT22;2338;49.602;8.722;2024-01-15T09:14:43;0.70;99.90
4651;DHT22;2338;49.602;8.722;2024-01-15T09:17:28;0.70;99.90
4651;DHT22;2338;49.602;8.722;2024-01-15T09:20:16;0.80;99.90
4651;DHT22;2338;49.602;8.722;2024-01-15T09:23:01;0.80;99.90
4651;DHT22;2338;49.602;8.722;2024-01-15T09:25:47;0.80;99.90
4651;DHT22;2338;49.602;8.722;2024-01-15T09:28:34;0.80;99.90
4651;DHT22;2338;49.602;8.722;2024-01-15T09:31:19;0.70;99.90
4651;DHT22;2338;49.602;8.722;2024-01-15T09:34:05;0.80;99.90
4651;DHT22;2338;49.602;8.722;2024-01-15T09:36:52;0.80;99.90
4651;DHT22;2338;49.602;8.722;2024-01-15T09:39:38;0.80;99.90
4651;DHT22;2338;49.602;8.722;2024-01-15T09:42:24;0.80;99.90
4651;DHT22;2338;49.602;8.722;2024-01-15T09:45:10;0.80;99.90
4651;DHT22;2338;49.602;8.722;2024-01-15T09:47:56;0.80;99.90
4651;DHT22;2338;49.602;8.722;2024-01-15T09:50:42;0.70;99.90
4651;DHT22;2338;49.602;8.722;2024-01-15T09:53:28;0.80;99.90
4651;DHT22;2338;49.602;8.722;2024-01-15T09:56:15;0.80;99.90
4651;DHT22;2338;49.602;8.722;2024-01-15T09:59:01;0.80;99.90
4651;DHT22;2338;49.602;8.722;2024-01-15T10:01:50;0.80;99.90
4651;DHT22;2338;49.602;8.722;2024-01-15T10:04:36;0.80;99.90
4651;DHT22;2338;49.602;8.722;2024-01-15T10:07:22;0.70;99.90
4651;DHT22;2338;49.602;8.722;2024-01-15T10:10:11;0.70;99.90
4651;DHT22;2338;49.602;8.722;2024-01-15T10:12:58;0.60;99.90
4651;DHT22;2338;49.602;8.722;2024-01-15T10:15:45;0.60;99.90
4651;DHT22;2338;49.602;8.722;2024-01-15T10:18:32;0.60;99.90
4651;DHT22;2338;49.602;8.722;2024-01-15T10:21:18;0.50;99.90
4651;DHT22;2338;49.602;8.722;2024-01-15T10:24:04;0.60;99.90
4651;DHT22;2338;49.602;8.722;2024-01-15T10:26:52;0.70;99.90
4651;DHT22;2338;49.602;8.722;2024-01-15T10:29:37;0.60;99.90
4651;DHT22;2338;49.602;8.722;2024-01-15T10:32:23;0.60;99.90
4651;DHT22;2338;49.602;8.722;2024-01-15T10:35:09;0.70;99.90
4651;DHT22;2338;49.602;8.722;2024-01-15T10:37:54;0.80;99.90
4651;DHT22;2338;49.602;8.722;2024-01-15T10:40:40;0.80;99.90
4651;DHT22;2338;49.602;8.722;2024-01-15T10:43:28;0.80;99.90
4651;DHT22;2338;49.602;8.722;2024-01-15T10:46:13;0.70;99.90
4651;DHT22;2338;49.602;8.722;2024-01-15T10:48:59;0.70;99.90
4651;DHT22;2338;49.602;8.722;2024-01-15T10:51:45;0.70;99.90
4651;DHT22;2338;49.602;8.722;2024-01-15T10:54:32;0.80;99.90
4651;DHT22;2338;49.602;8.722;2024-01-15T10:57:18;0.80;99.90
4651;DHT22;2338;49.602;8.722;2024-01-15T11:00:08;0.90;99.90
4651;DHT22;2338;49.602;8.722;2024-01-15T11:03:01;1.00;99.90
4651;DHT22;2338;49.602;8.722;2024-01-15T11:05:47;0.90;99.90
4651;DHT22;2338;49.602;8.722;2024-01-15T11:08:33;1.00;99.90
4651;DHT22;2338;49.602;8.722;2024-01-15T11:11:22;1.00;99.90
4651;DHT22;2338;49.602;8.722;2024-01-15T11:14:07;0.90;99.90
4651;DHT22;2338;49.602;8.722;2024-01-15T11:16:57;0.90;99.90
4651;DHT22;2338;49.602;8.722;2024-01-15T11:19:45;1.00;99.90
4651;DHT22;2338;49.602;8.722;2024-01-15T11:22:49;1.00;99.90
4651;DHT22;2338;49.602;8.722;2024-01-15T11:25:35;1.00;99.90
4651;DHT22;2338;49.602;8.722;2024-01-15T11:28:47;1.00;99.90
4651;DHT22;2338;49.602;8.722;2024-01-15T11:32:06;1.00;99.90
4651;DHT22;2338;49.602;8.722;2024-01-15T11:34:54;1.10;99.90
4651;DHT22;2338;49.602;8.722;2024-01-15T11:37:57;1.10;99.90
4651;DHT22;2338;49.602;8.722;2024-01-15T11:40:44;1.10;99.90
4651;DHT22;2338;49.602;8.722;2024-01-15T11:43:32;1.20;99.90
4651;DHT22;2338;49.602;8.722;2024-01-15T11:46:18;1.20;99.90
4651;DHT22;2338;49.602;8.722;2024-01-15T11:49:07;1.20;99.90
4651;DHT22;2338;49.602;8.722;2024-01-15T11:51:57;1.30;99.90
4651;DHT22;2338;49.602;8.722;2024-01-15T11:54:52;1.20;99.90
4651;DHT22;2338;49.602;8.722;2024-01-15T11:57:45;1.10;99.90
4651;DHT22;2338;49.602;8.722;2024-01-15T12:00:32;1.10;99.90
4651;DHT22;2338;49.602;8.722;2024-01-15T12:03:17;1.20;99.90
4651;DHT22;2338;49.602;8.722;2024-01-15T12:06:08;1.20;99.90
4651;DHT22;2338;49.602;8.722;2024-01-15T12:09:05;1.20;99.90
4651;DHT22;2338;49.602;8.722;2024-01-15T12:11:57;1.10;99.90
4651;DHT22;2338;49.602;8.722;2024-01-15T12:14:44;1.00;99.90
4651;DHT22;2338;49.602;8.722;2024-01-15T12:17:30;1.00;99.90
4651;DHT22;2338;49.602;8.722;2024-01-15T12:20:16;1.10;99.90
4651;DHT22;2338;49.602;8.722;2024-01-15T12:23:03;1.00;99.90
4651;DHT22;2338;49.602;8.722;2024-01-15T12:25:50;1.10;99.90
4651;DHT22;2338;49.602;8.722;2024-01-15T12:28:36;1.20;99.90
4651;DHT22;2338;49.602;8.722;2024-01-15T12:31:23;1.20;99.90
4651;DHT22;2338;49.602;8.722;2024-01-15T12:34:09;1.30;99.90
4651;DHT22;2338;49.602;8.722;2024-01-15T12:36:57;1.30;99.90
4651;DHT22;2338;49.602;8.722;2024-01-15T12:39:44;1.30;99.90
4651;DHT22;2338;49.602;8.722;2024-01-15T12:42:30;1.30;99.90
4651;DHT22;2338;49.602;8.722;2024-01-15T12:45:15;1.40;99.90
4651;DHT22;2338;49.602;8.722;2024-01-15T12:48:01;1.50;99.90
4651;DHT22;2338;49.602;8.722;2024-01-15T12:50:47;1.50;99.90
4651;DHT22;2338;49.602;8.722;2024-01-15T12:53:33;1.60;99.90
4651;DHT22;2338;49.602;8.722;2024-01-15T12:56:20;1.50;99.90
4651;DHT22;2338;49.602;8.722;2024-01-15T12:59:05;1.50;99.90
4651;DHT22;2338;49.602;8.722;2024-01-15T13:01:51;1.60;99.90
4651;DHT22;2338;49.602;8.722;2024-01-15T13:04:37;1.60;99.90
4651;DHT22;2338;49.602;8.722;2024-01-15T13:07:23;1.70;99.90
4651;DHT22;2338;49.602;8.722;2024-01-15T13:10:09;1.70;99.90
4651;DHT22;2338;49.602;8.722;2024-01-15T13:12:56;1.60;99.90
4651;DHT22;2338;49.602;8.722;2024-01-15T13:15:42;1.60;99.90
4651;DHT22;2338;49.602;8.722;2024-01-15T13:18:28;1.60;99.90
4651;DHT22;2338;49.602;8.722;2024-01-15T13:21:15;1.70;99.90
4651;DHT22;2338;49.602;8.722;2024-01-15T13:24:00;1.70;99.90
4651;DHT22;2338;49.602;8.722;2024-01-15T13:26:47;1.60;99.90
4651;DHT22;2338;49.602;8.722;2024-01-15T13:29:34;1.70;99.90
4651;DHT22;2338;49.602;8.722;2024-01-15T13:32:25;1.70;99.90
4651;DHT22;2338;49.602;8.722;2024-01-15T13:35:11;1.60;99.90
4651;DHT22;2338;49.602;8.722;2024-01-15T13:37:58;1.70;99.90
4651;DHT22;2338;49.602;8.722;2024-01-15T13:40:43;1.70;99.90
4651;DHT22;2338;49.602;8.722;2024-01-15T13:43:30;1.60;99.90
4651;DHT22;2338;49.602;8.722;2024-01-15T13:46:17;1.60;99.90
4651;DHT22;2338;49.602;8.722;2024-01-15T13:49:04;1.70;99.90
4651;DHT22;2338;49.602;8.722;2024-01-15T13:51:50;1.70;99.90
4651;DHT22;2338;49.602;8.722;2024-01-15T13:54:36;1.70;99.90
4651;DHT22;2338;49.602;8.722;2024-01-15T13:57:22;1.70;99.90
4651;DHT22;2338;49.602;8.722;2024-01-15T14:00:09;1.70;99.90
4651;DHT22;2338;49.602;8.722;2024-01-15T14:02:57;1.70;99.90
4651;DHT22;2338;49.602;8.722;2024-01-15T14:05:42;1.60;99.90
4651;DHT22;2338;49.602;8.722;2024-01-15T14:08:28;1.70;99.90
4651;DHT22;2338;49.602;8.722;2024-01-15T14:11:14;1.80;99.90
4651;DHT22;2338;49.602;8.722;2024-01-15T14:13:59;1.80;99.90
4651;DHT22;2338;49.602;8.722;2024-01-15T14:16:46;1.90;99.90
4651;DHT22;2338;49.602;8.722;2024-01-15T14:19:33;1.70;99.90
4651;DHT22;2338;49.602;8.722;2024-01-15T14:22:19;1.80;99.90
4651;DHT22;2338;49.602;8.722;2024-01-15T14:25:04;1.70;99.90
4651;DHT22;2338;49.602;8.722;2024-01-15T14:27:50;1.70;99.90
4651;DHT22;2338;49.602;8.722;2024-01-15T14:30:36;1.80;99.90
4651;DHT22;2338;49.602;8.722;2024-01-15T14:33:21;1.80;99.90
4651;DHT22;2338;49.602;8.722;2024-01-15T14:36:08;1.90;99.90
4651;DHT22;2338;49.602;8.722;2024-01-15T14:38:54;1.90;99.90
4651;DHT22;2338;49.602;8.722;2024-01-15T14:41:40;1.80;99.90
4651;DHT22;2338;49.602;8.722;2024-01-15T14:44:26;1.80;99.90
4651;DHT22;2338;49.602;8.722;2024-01-15T14:47:12;1.90;99.90
4651;DHT22;2338;49.602;8.722;2024-01-15T14:49:58;1.90;99.90
4651;DHT22;2338;49.602;8.722;2024-01-15T14:52:45;1.80;99.90
4651;DHT22;2338;49.602;8.722;2024-01-15T14:55:31;1.90;99.90
4651;DHT22;2338;49.602;8.722;2024-01-15T14:58:16;1.90;99.90
4651;DHT22;2338;49.602;8.722;2024-01-15T15:01:02;2.00;99.90
4651;DHT22;2338;49.602;8.722;2024-01-15T15:03:48;2.00;99.90
4651;DHT22;2338;49.602;8.722;2024-01-15T15:06:34;2.00;99.90
4651;DHT22;2338;49.602;8.722;2024-01-15T15:09:21;2.10;99.90
4651;DHT22;2338;49.602;8.722;2024-01-15T15:12:07;2.00;99.90
4651;DHT22;2338;49.602;8.722;2024-01-15T15:14:53;1.90;99.90
4651;DHT22;2338;49.602;8.722;2024-01-15T15:17:39;2.00;99.90
4651;DHT22;2338;49.602;8.722;2024-01-15T15:20:25;2.00;99.90
4651;DHT22;2338;49.602;8.722;2024-01-15T15:23:10;2.00;99.90
4651;DHT22;2338;49.602;8.722;2024-01-15T15:25:57;2.00;99.90
4651;DHT22;2338;49.602;8.722;2024-01-15T15:28:43;1.90;99.90
4651;DHT22;2338;49.602;8.722;2024-01-15T15:31:28;2.00;99.90
4651;DHT22;2338;49.602;8.722;2024-01-15T15:34:14;2.00;99.90
4651;DHT22;2338;49.602;8.722;2024-01-15T15:37:00;2.10;99.90
4651;DHT22;2338;49.602;8.722;2024-01-15T15:39:46;2.10;99.90
4651;DHT22;2338;49.602;8.722;2024-01-15T15:42:33;2.10;99.90
4651;DHT22;2338;49.602;8.722;2024-01-15T15:45:19;2.10;99.90
4651;DHT22;2338;49.602;8.722;2024-01-15T15:48:05;2.10;99.90
4651;DHT22;2338;49.602;8.722;2024-01-15T15:50:51;2.00;99.90
4651;DHT22;2338;49.602;8.722;2024-01-15T15:53:36;2.00;99.90
4651;DHT22;2338;49.602;8.722;2024-01-15T15:56:22;2.10;99.90
4651;DHT22;2338;49.602;8.722;2024-01-15T15:59:09;2.10;99.90
4651;DHT22;2338;49.602;8.722;2024-01-15T16:01:54;2.10;99.90
4651;DHT22;2338;49.602;8.722;2024-01-15T16:04:40;2.10;99.90
4651;DHT22;2338;49.602;8.722;2024-01-15T16:07:25;2.10;99.90
4651;DHT22;2338;49.602;8.722;2024-01-15T16:10:12;2.10;99.90
4651;DHT22;2338;49.602;8.722;2024-01-15T16:12:58;2.10;99.90
4651;DHT22;2338;49.602;8.722;2024-01-15T16:15:45;2.00;99.90
4651;DHT22;2338;49.602;8.722;2024-01-15T16:18:31;2.10;99.90
4651;DHT22;2338;49.602;8.722;2024-01-15T16:21:16;2.10;99.90
4651;DHT22;2338;49.602;8.722;2024-01-15T16:24:02;2.10;99.90
4651;DHT22;2338;49.602;8.722;2024-01-15T16:26:48;2.00;99.90
4651;DHT22;2338;49.602;8.722;2024-01-15T16:29:34;2.00;99.90
4651;DHT22;2338;49.602;8.722;2024-01-15T16:32:21;2.00;99.90
4651;DHT22;2338;49.602;8.722;2024-01-15T16:35:06;2.00;99.90
4651;DHT22;2338;49.602;8.722;2024-01-15T16:37:52;2.00;99.90
4651;DHT22;2338;49.602;8.722;2024-01-15T16:40:38;1.90;99.90
4651;DHT22;2338;49.602;8.722;2024-01-15T16:43:24;1.90;99.90
4651;DHT22;2338;49.602;8.722;2024-01-15T16:46:10;1.90;99.90
4651;DHT22;2338;49.602;8.722;2024-01-15T16:48:57;1.90;99.90
4651;DHT22;2338;49.602;8.722;2024-01-15T16:51:44;1.90;99.90
4651;DHT22;2338;49.602;8.722;2024-01-15T16:54:31;1.80;99.90
4651;DHT22;2338;49.602;8.722;2024-01-15T16:57:16;1.80;99.90
4651;DHT22;2338;49.602;8.722;2024-01-15T17:00:02;1.80;99.90
4651;DHT22;2338;49.602;8.722;2024-01-15T17:02:49;1.80;99.90
4651;DHT22;2338;49.602;8.722;2024-01-15T17:05:36;1.80;99.90
4651;DHT22;2338;49.602;8.722;2024-01-15T17:08:21;1.80;99.90
4651;DHT22;2338;49.602;8.722;2024-01-15T17:11:07;1.80;99.90
4651;DHT22;2338;49.602;8.722;2024-01-15T17:13:52;1.80;99.90
4651;DHT22;2338;49.602;8.722;2024-01-15T17:16:38;1.90;99.90
4651;DHT22;2338;49.602;8.722;2024-01-15T17:19:24;2.00;99.90
4651;DHT22;2338;49.602;8.722;2024-01-15T17:22:12;1.90;99.90
4651;DHT22;2338;49.602;8.722;2024-01-15T17:24:59;1.90;99.90
4651;DHT22;2338;49.602;8.722;2024-01-15T17:27:44;1.90;99.90
4651;DHT22;2338;49.602;8.722;2024-01-15T17:30:30;1.90;99.90
4651;DHT22;2338;49.602;8.722;2024-01-15T17:33:16;1.90;99.90
4651;DHT22;2338;49.602;8.722;2024-01-15T17:36:02;1.90;99.90
4651;DHT22;2338;49.602;8.722;2024-01-15T17:38:51;1.90;99.90
4651;DHT22;2338;49.602;8.722;2024-01-15T17:41:36;1.80;99.90
4651;DHT22;2338;49.602;8.722;2024-01-15T17:44:22;1.80;99.90
4651;DHT22;2338;49.602;8.722;2024-01-15T17:47:09;1.80;99.90
4651;DHT22;2338;49.602;8.722;2024-01-15T17:49:55;1.80;99.90
4651;DHT22;2338;49.602;8.722;2024-01-15T17:52:41;1.80;99.90
4651;DHT22;2338;49.602;8.722;2024-01-15T17:55:28;1.90;99.90
4651;DHT22;2338;49.602;8.722;2024-01-15T17:58:13;1.90;99.90
4651;DHT22;2338;49.602;8.722;2024-01-15T18:00:59;1.90;99.90
4651;DHT22;2338;49.602;8.722;2024-01-15T18:03:45;1.90;99.90
4651;DHT22;2338;49.602;8.722;2024-01-15T18:06:31;1.90;99.90
4651;DHT22;2338;49.602;8.722;2024-01-15T18:09:16;1.90;99.90
4651;DHT22;2338;49.602;8.722;2024-01-15T18:12:05;1.90;99.90
4651;DHT22;2338;49.602;8.722;2024-01-15T18:14:50;1.90;99.90
4651;DHT22;2338;49.602;8.722;2024-01-15T18:17:36;1.90;99.90